createdAt,value
2014-07-24T19:01:34.009Z,101063
2014-07-24T19:01:52.212Z,101063
2014-07-24T19:02:10.400Z,101063
2014-07-24T19:02:28.605Z,101063
2014-07-24T19:02:46.808Z,101060
2014-07-24T19:03:04.995Z,101060
2014-07-24T19:03:23.200Z,101074
2014-07-24T19:03:41.403Z,101072
2014-07-24T19:03:59.590Z,101069
2014-07-24T19:04:17.795Z,101075
2014-07-24T19:04:35.983Z,101067
2014-07-24T19:04:54.186Z,101058
2014-07-24T19:05:12.373Z,101067
2014-07-24T19:05:30.579Z,101068
2014-07-24T19:05:48.766Z,101068
2014-07-24T19:06:06.969Z,101068
2014-07-24T19:06:25.159Z,101070
2014-07-24T19:06:43.362Z,101070
2014-07-24T19:07:01.549Z,101062
2014-07-24T19:07:19.754Z,101068
2014-07-24T19:07:37.942Z,101073
2014-07-24T19:07:56.145Z,101071
2014-07-24T19:08:14.333Z,101073
2014-07-24T19:08:32.538Z,101074
2014-07-24T19:08:50.725Z,101071
2014-07-24T19:09:08.928Z,101076
2014-07-24T19:09:27.133Z,101082
2014-07-24T19:09:45.321Z,101076
2014-07-24T19:10:03.524Z,101076
2014-07-24T19:10:21.712Z,101088
2014-07-24T19:10:39.917Z,101074
2014-07-24T19:10:58.104Z,101074
2014-07-24T19:11:16.307Z,101074
2014-07-24T19:11:34.497Z,101074
2014-07-24T19:11:52.684Z,101074
2014-07-24T19:12:10.887Z,101071
2014-07-24T19:12:29.075Z,101074
2014-07-24T19:12:47.281Z,101077
2014-07-24T19:13:05.469Z,101088
2014-07-24T19:13:23.672Z,101071
2014-07-24T19:13:41.876Z,101080
2014-07-24T19:14:00.610Z,101080
2014-07-24T19:14:18.813Z,101074
2014-07-24T19:14:37.003Z,101074
2014-07-24T19:14:55.206Z,101077
2014-07-24T19:15:13.393Z,101071
2014-07-24T19:15:31.581Z,101077
2014-07-24T19:15:49.786Z,101074
2014-07-24T19:16:07.974Z,101077
2014-07-24T19:16:26.208Z,101074
2014-07-24T19:16:44.397Z,101086
2014-07-24T19:17:02.601Z,101083
2014-07-24T19:17:20.788Z,101071
2014-07-24T19:17:38.993Z,101072
2014-07-24T19:17:57.181Z,101078
2014-07-24T19:18:15.368Z,101075
2014-07-24T19:18:33.571Z,101080
2014-07-24T19:18:51.761Z,101080
2014-07-24T19:19:09.964Z,101075
2014-07-24T19:19:28.167Z,101083
2014-07-24T19:19:46.357Z,101072
2014-07-24T19:20:04.544Z,101069
2014-07-24T19:20:22.747Z,101074
2014-07-24T19:20:40.937Z,101072
2014-07-24T19:20:59.140Z,101072
2014-07-24T19:21:17.343Z,101077
2014-07-24T19:21:35.530Z,101074
2014-07-24T19:21:53.736Z,101074
2014-07-24T19:22:11.923Z,101068
2014-07-24T19:22:30.126Z,101074
2014-07-24T19:22:48.316Z,101074
2014-07-24T19:23:06.519Z,101068
2014-07-24T19:23:24.706Z,101074
2014-07-24T19:23:42.911Z,101065
2014-07-24T19:24:01.099Z,101074
2014-07-24T19:24:19.302Z,101066
2014-07-24T19:24:37.490Z,101063
2014-07-24T19:24:55.694Z,101066
2014-07-24T19:25:13.881Z,101063
2014-07-24T19:25:32.084Z,101060
2014-07-24T19:25:50.289Z,101065
2014-07-24T19:26:08.493Z,101071
2014-07-24T19:26:26.696Z,101071
2014-07-24T19:26:44.886Z,101062
2014-07-24T19:27:03.089Z,101068
2014-07-24T19:27:21.277Z,101060
2014-07-24T19:27:39.480Z,101048
2014-07-24T19:27:57.668Z,101060
2014-07-24T19:28:15.872Z,101065
2014-07-24T19:28:34.059Z,101068
2014-07-24T19:28:52.265Z,101066
2014-07-24T19:29:10.453Z,101060
2014-07-24T19:29:28.656Z,101066
2014-07-24T19:29:46.844Z,101068
2014-07-24T19:30:05.047Z,101063
2014-07-24T19:30:23.251Z,101060
2014-07-24T19:30:41.438Z,101060
2014-07-24T19:30:59.643Z,101054
2014-07-24T19:31:17.831Z,101057
2014-07-24T19:31:36.065Z,101048
2014-07-24T19:31:54.270Z,101063
2014-07-24T19:32:12.473Z,101063
2014-07-24T19:32:30.661Z,101054
2014-07-24T19:32:48.866Z,101063
2014-07-24T19:33:07.069Z,101057
2014-07-24T19:33:25.350Z,101062
2014-07-24T19:33:43.553Z,101062
2014-07-24T19:34:01.743Z,101062
2014-07-24T19:34:19.946Z,101062
2014-07-24T19:34:38.134Z,101068
2014-07-24T19:34:56.339Z,101065
2014-07-24T19:35:14.526Z,101060
2014-07-24T19:35:32.729Z,101071
2014-07-24T19:35:50.919Z,101060
2014-07-24T19:36:09.122Z,101051
2014-07-24T19:36:27.309Z,101065
2014-07-24T19:36:45.513Z,101068
2014-07-24T19:37:03.701Z,101057
2014-07-24T19:37:21.904Z,101054
2014-07-24T19:37:44.779Z,101068
2014-07-24T19:38:02.970Z,101057
2014-07-24T19:38:21.173Z,101060
2014-07-24T19:38:39.376Z,101063
2014-07-24T19:38:57.564Z,101048
2014-07-24T19:39:15.752Z,101054
2014-07-24T19:39:33.955Z,101060
2014-07-24T19:39:52.160Z,101048
2014-07-24T19:40:10.348Z,101054
2014-07-24T19:40:28.535Z,101060
2014-07-24T19:40:46.738Z,101054
2014-07-24T19:41:04.959Z,101054
2014-07-24T19:41:23.147Z,101063
2014-07-24T19:41:41.350Z,101057
2014-07-24T19:41:59.540Z,101048
2014-07-24T19:42:17.743Z,101048
2014-07-24T19:42:35.931Z,101057
2014-07-24T19:42:54.136Z,101060
2014-07-24T19:43:12.323Z,101054
2014-07-24T19:43:30.527Z,101065
2014-07-24T19:43:48.730Z,101060
2014-07-24T19:44:06.919Z,101054
2014-07-24T19:44:25.107Z,101054
2014-07-24T19:44:43.310Z,101057
2014-07-24T19:45:01.515Z,101054
2014-07-24T19:45:19.718Z,101048
2014-07-24T19:45:37.921Z,101043
2014-07-24T19:45:56.111Z,101057
2014-07-24T19:46:14.314Z,101051
2014-07-24T19:46:32.517Z,101057
2014-07-24T19:46:50.704Z,101043
2014-07-24T19:47:08.909Z,101051
2014-07-24T19:47:27.096Z,101057
2014-07-24T19:47:45.299Z,101060
2014-07-24T19:48:03.489Z,101063
2014-07-24T19:48:21.692Z,101051
2014-07-24T19:48:39.879Z,101051
2014-07-24T19:48:58.084Z,101051
2014-07-24T19:49:16.272Z,101057
2014-07-24T19:49:34.475Z,101051
2014-07-24T19:49:52.678Z,101051
2014-07-24T19:50:10.868Z,101054
2014-07-24T19:50:29.071Z,101054
2014-07-24T19:50:47.274Z,101048
2014-07-24T19:51:05.463Z,101051
2014-07-24T19:51:23.667Z,101048
2014-07-24T19:51:41.854Z,101045
2014-07-24T19:52:00.057Z,101060
2014-07-24T19:52:18.247Z,101060
2014-07-24T19:52:36.450Z,101051
2014-07-24T19:52:54.653Z,101054
2014-07-24T19:53:12.842Z,101060
2014-07-24T19:53:31.046Z,101048
2014-07-24T19:53:49.233Z,101045
2014-07-24T19:54:07.438Z,101048
2014-07-24T19:54:25.657Z,101051
2014-07-24T19:54:43.829Z,101051
2014-07-24T19:55:02.032Z,101043
2014-07-24T19:55:20.253Z,101051
2014-07-24T19:55:38.440Z,101057
2014-07-24T19:55:56.628Z,101060
2014-07-24T19:56:14.833Z,101043
2014-07-24T19:56:33.036Z,101051
2014-07-24T19:56:51.223Z,101051
2014-07-24T19:57:09.442Z,101045
2014-07-24T19:57:27.616Z,101051
2014-07-24T19:57:45.804Z,101057
2014-07-24T19:58:04.022Z,101048
2014-07-24T21:46:52.669Z,100980
2014-07-24T21:47:10.872Z,100983
2014-07-24T21:47:29.061Z,100983
2014-07-24T21:47:47.249Z,100977
2014-07-24T21:48:05.436Z,100968
2014-07-24T21:48:23.642Z,100980
2014-07-24T21:48:41.829Z,100990
2014-07-24T21:49:00.017Z,100977
2014-07-24T21:49:18.206Z,100980
2014-07-24T21:49:36.394Z,100990
2014-07-24T21:49:54.597Z,100977
2014-07-24T21:50:12.784Z,100974
2014-07-24T21:50:30.974Z,100979
2014-07-24T21:50:49.161Z,100971
2014-07-24T21:51:07.349Z,100979
2014-07-24T21:51:25.538Z,100974
2014-07-24T21:51:43.726Z,100976
2014-07-24T21:52:01.913Z,100976
2014-07-24T21:52:20.103Z,100985
2014-07-24T21:52:38.290Z,100976
2014-07-24T21:52:56.478Z,100982
2014-07-24T21:53:14.681Z,100985
2014-07-24T21:53:32.870Z,100985
2014-07-24T21:53:51.058Z,100979
2014-07-24T21:54:09.245Z,100976
2014-07-24T21:54:27.434Z,100990
2014-07-24T21:54:45.637Z,100982
2014-07-24T21:55:03.824Z,100973
2014-07-24T21:55:22.014Z,100973
2014-07-24T21:55:40.201Z,100976
2014-07-24T21:55:58.389Z,100976
2014-07-24T21:56:16.576Z,100962
2014-07-24T21:56:34.782Z,100976
2014-07-24T21:56:52.969Z,100970
2014-07-24T21:57:11.157Z,100970
2014-07-24T21:57:29.346Z,100967
2014-07-24T21:57:47.549Z,100970
2014-07-24T21:58:05.737Z,100973
2014-07-24T21:58:23.927Z,100964
2014-07-24T21:58:42.115Z,100964
2014-07-24T21:59:00.302Z,100964
2014-07-24T21:59:18.490Z,100964
2014-07-24T21:59:36.679Z,100967
2014-07-24T21:59:54.882Z,100967
2014-07-24T22:00:13.070Z,100967
2014-07-24T22:00:31.259Z,100967
2014-07-24T22:00:49.447Z,100967
2014-07-24T22:01:07.634Z,100967
2014-07-24T22:01:25.824Z,100973
2014-07-24T22:01:44.027Z,100964
2014-07-24T22:02:02.214Z,100962
2014-07-24T22:02:20.402Z,100964
2014-07-24T22:02:38.590Z,100967
2014-07-24T22:02:56.778Z,100964
2014-07-24T22:03:14.965Z,100964
2014-07-24T22:03:33.171Z,100967
2014-07-24T22:03:51.358Z,100964
2014-07-24T22:04:09.546Z,100956
2014-07-24T22:04:27.735Z,100961
2014-07-24T22:04:45.923Z,100959
2014-07-24T22:05:04.110Z,100970
2014-07-24T22:05:22.313Z,100961
2014-07-24T22:05:40.503Z,100961
2014-07-24T22:05:58.690Z,100961
2014-07-24T22:06:16.878Z,100961
2014-07-24T22:06:35.080Z,100953
2014-07-24T22:06:53.268Z,100964
2014-07-24T22:07:11.455Z,100956
2014-07-24T22:07:29.698Z,100964
2014-07-24T22:07:47.886Z,100956
2014-07-24T22:08:06.073Z,100956
2014-07-24T22:08:24.261Z,100961
2014-07-24T22:08:42.489Z,100956
2014-07-24T22:09:00.677Z,100959
2014-07-24T22:09:18.864Z,100964
2014-07-24T22:09:37.093Z,100964
2014-07-24T22:09:55.280Z,100961
2014-07-24T22:10:13.483Z,100956
2014-07-24T22:10:31.711Z,100953
2014-07-24T22:10:49.898Z,100959
2014-07-24T22:11:08.086Z,100956
2014-07-24T22:11:26.289Z,100950
2014-07-24T22:11:44.509Z,100950
2014-07-24T22:12:02.696Z,100964
2014-07-24T22:12:20.884Z,100953
2014-07-24T22:12:39.087Z,100950
2014-07-24T22:12:57.290Z,100959
2014-07-24T22:13:15.478Z,100950
2014-07-24T22:13:33.681Z,100961
2014-07-24T22:13:51.869Z,100964
2014-07-24T22:14:10.056Z,100964
2014-07-24T22:14:28.244Z,100961
2014-07-24T22:14:46.447Z,100956
2014-07-24T22:15:04.650Z,100964
2014-07-24T22:15:22.838Z,100959
2014-07-24T22:15:41.040Z,100961
2014-07-24T22:15:59.228Z,100961
2014-07-24T22:16:17.415Z,100961
2014-07-24T22:16:35.631Z,100967
2014-07-24T22:16:53.819Z,100959
2014-07-24T22:17:12.006Z,100950
2014-07-24T22:17:30.194Z,100956
2014-07-24T22:17:48.404Z,100961
2014-07-24T22:18:06.592Z,100956
2014-07-24T22:18:24.779Z,100961
2014-07-24T22:18:42.974Z,100961
2014-07-24T22:19:01.161Z,100956
2014-07-24T22:19:19.349Z,100964
2014-07-24T22:19:37.543Z,100959
2014-07-24T22:19:55.746Z,100959
2014-07-24T22:20:13.934Z,100953
2014-07-24T22:20:32.121Z,100961
2014-07-24T22:20:50.331Z,100956
2014-07-24T22:21:08.519Z,100956
2014-07-24T22:21:26.706Z,100959
2014-07-24T22:21:44.899Z,100964
2014-07-24T22:22:03.086Z,100959
2014-07-24T22:22:21.274Z,100967
2014-07-24T22:22:39.481Z,100961
2014-07-24T22:22:57.668Z,100967
2014-07-24T22:23:15.856Z,100956
2014-07-24T22:23:34.043Z,100964
2014-07-24T22:23:52.234Z,100953
2014-07-24T22:24:10.421Z,100959
2014-07-24T22:24:28.625Z,100961
2014-07-24T22:24:46.815Z,100961
2014-07-24T22:25:05.003Z,100958
2014-07-24T22:25:23.190Z,100967
2014-07-24T22:25:41.382Z,100967
2014-07-24T22:25:59.569Z,100953
2014-07-24T22:26:17.757Z,100970
2014-07-24T22:26:35.944Z,100973
2014-07-24T22:26:54.135Z,100961
2014-07-24T22:27:12.338Z,100955
2014-07-24T22:27:30.525Z,100961
2014-07-24T22:27:48.716Z,100976
2014-07-24T22:28:06.903Z,100970
2014-07-24T22:28:25.091Z,100955
2014-07-24T22:28:43.297Z,100976
2014-07-24T22:29:01.484Z,100964
2014-07-24T22:29:19.672Z,100964
2014-07-24T22:29:37.859Z,100958
2014-07-24T22:29:56.049Z,100973
2014-07-24T22:30:14.236Z,100964
2014-07-24T22:30:32.424Z,100964
2014-07-24T22:30:50.614Z,100964
2014-07-24T22:31:08.817Z,100964
2014-07-24T22:31:27.005Z,100967
2014-07-24T22:31:45.458Z,100961
2014-07-24T22:32:03.648Z,100964
2014-07-24T22:32:21.835Z,100970
2014-07-24T22:32:40.023Z,100976
2014-07-24T22:32:58.212Z,100981
2014-07-24T22:33:16.400Z,100964
2014-07-24T22:33:34.603Z,100970
2014-07-24T22:33:52.790Z,100967
2014-07-24T22:34:10.980Z,100970
2014-07-24T22:34:29.167Z,100967
2014-07-24T22:34:47.355Z,100967
2014-07-24T22:35:05.545Z,100967
2014-07-24T22:35:23.733Z,100970
2014-07-24T22:35:41.920Z,100961
2014-07-24T22:36:00.108Z,100964
2014-07-24T22:36:18.297Z,100970
2014-07-24T22:36:36.500Z,100961
2014-07-24T22:36:54.688Z,100973
2014-07-24T22:37:12.876Z,100973
2014-07-24T22:37:31.064Z,100967
2014-07-24T22:37:49.251Z,100964
2014-07-24T22:38:07.442Z,100970
2014-07-24T22:38:25.629Z,100961
2014-07-24T22:38:43.817Z,100967
2014-07-24T22:39:02.020Z,100961
2014-07-24T22:39:20.209Z,100964
2014-07-24T22:39:38.397Z,100961
2014-07-24T22:39:56.584Z,100961
2014-07-24T22:40:14.773Z,100970
2014-07-24T22:40:32.960Z,100970
2014-07-24T22:40:51.164Z,100970
2014-07-24T22:41:09.353Z,100955
2014-07-24T22:41:27.541Z,100958
2014-07-24T22:41:45.728Z,100970
2014-07-24T22:42:03.931Z,100958
2014-07-24T22:42:22.121Z,100958
2014-07-24T22:42:40.308Z,100961
2014-07-24T22:42:58.496Z,100970
2014-07-24T22:43:16.685Z,100967
2014-07-24T22:43:34.873Z,100967
2014-07-24T22:43:53.076Z,100967
2014-07-24T22:44:11.265Z,100972
2014-07-24T22:44:29.453Z,100964
2014-07-24T22:44:47.640Z,100961
2014-07-24T22:45:05.828Z,100964
2014-07-24T22:45:24.017Z,100958
2014-07-24T22:45:42.220Z,100970
2014-07-24T22:46:00.408Z,100967
2014-07-24T22:46:18.597Z,100967
2014-07-24T22:46:36.785Z,100961
2014-07-24T22:46:54.972Z,100970
2014-07-24T22:47:13.161Z,100970
2014-07-24T22:47:31.348Z,100961
2014-07-24T22:47:49.552Z,100970
2014-07-24T22:48:07.739Z,100961
2014-07-24T22:48:25.930Z,100967
2014-07-24T22:48:44.117Z,100964
2014-07-24T22:49:02.305Z,100970
2014-07-24T22:49:20.510Z,100964
2014-07-24T22:49:38.697Z,100964
2014-07-24T22:49:56.885Z,100964
2014-07-24T22:50:15.074Z,100967
2014-07-24T22:50:33.262Z,100964
2014-07-24T22:50:51.449Z,100967
2014-07-24T22:51:09.637Z,100961
2014-07-24T22:51:27.842Z,100964
2014-07-24T22:51:46.029Z,100961
2014-07-24T22:52:04.217Z,100955
2014-07-24T22:52:22.406Z,100958
2014-07-24T22:52:40.594Z,100955
2014-07-24T22:52:58.781Z,100955
2014-07-24T22:53:16.986Z,100961
2014-07-24T22:53:35.174Z,100955
2014-07-24T22:53:53.361Z,100958
2014-07-24T22:54:11.549Z,100952
2014-07-24T22:54:29.737Z,100958
2014-07-24T22:54:47.925Z,100952
2014-07-24T22:55:06.112Z,100955
2014-07-24T22:55:24.303Z,100964
2014-07-24T22:55:42.490Z,100967
2014-07-24T22:56:00.694Z,100952
2014-07-24T22:56:18.882Z,100958
2014-07-24T22:56:37.070Z,100961
2014-07-24T22:56:55.257Z,100958
2014-07-24T22:57:13.445Z,100961
2014-07-24T22:57:31.634Z,100967
2014-07-24T22:57:49.822Z,100955
2014-07-24T22:58:08.025Z,100967
2014-07-24T22:58:26.214Z,100955
2014-07-24T22:58:44.402Z,100967
2014-07-24T22:59:02.589Z,100961
2014-07-24T22:59:20.779Z,100952
2014-07-24T22:59:38.966Z,100955
2014-07-24T22:59:57.169Z,100961
2014-07-24T23:00:15.357Z,100955
2014-07-24T23:00:33.546Z,100961
2014-07-24T23:00:51.734Z,100958
2014-07-24T23:01:09.921Z,100958
2014-07-24T23:01:28.111Z,100964
2014-07-24T23:01:46.314Z,100944
2014-07-24T23:02:04.501Z,100955
2014-07-24T23:02:22.691Z,100966
2014-07-24T23:02:40.878Z,100949
2014-07-24T23:02:59.066Z,100964
2014-07-24T23:03:17.253Z,100952
2014-07-24T23:03:35.443Z,100952
2014-07-24T23:03:53.646Z,100952
2014-07-24T23:04:11.834Z,100952
2014-07-24T23:04:30.023Z,100952
2014-07-24T23:04:48.211Z,100966
2014-07-24T23:05:06.398Z,100961
2014-07-24T23:05:24.588Z,100949
2014-07-24T23:05:42.775Z,100955
2014-07-24T23:06:00.978Z,100961
2014-07-24T23:06:19.166Z,100949
2014-07-24T23:06:37.354Z,100949
2014-07-24T23:06:55.542Z,100946
2014-07-24T23:07:13.729Z,100955
2014-07-24T23:07:31.920Z,100952
2014-07-24T23:07:50.123Z,100941
2014-07-24T23:08:08.310Z,100946
2014-07-24T23:08:26.500Z,100955
2014-07-24T23:08:44.687Z,100955
2014-07-24T23:09:02.875Z,100946
2014-07-24T23:09:21.062Z,100938
2014-07-24T23:09:39.252Z,100946
2014-07-24T23:09:57.455Z,100929
2014-07-24T23:10:15.642Z,100941
2014-07-24T23:10:33.832Z,100935
2014-07-24T23:10:52.019Z,100932
2014-07-24T23:11:10.207Z,100929
2014-07-24T23:11:28.394Z,100929
2014-07-24T23:11:46.584Z,100938
2014-07-24T23:12:04.787Z,100926
2014-07-24T23:12:22.975Z,100935
2014-07-24T23:12:41.164Z,100935
2014-07-24T23:12:59.352Z,100929
2014-07-24T23:13:17.539Z,100920
2014-07-24T23:13:35.728Z,100920
2014-07-24T23:13:53.931Z,100923
2014-07-24T23:14:12.118Z,100932
2014-07-24T23:14:30.306Z,100915
2014-07-24T23:14:48.495Z,100912
2014-07-24T23:15:06.683Z,100918
2014-07-24T23:15:24.870Z,100915
2014-07-24T23:15:43.076Z,100920
2014-07-24T23:16:01.264Z,100909
2014-07-24T23:16:19.451Z,100918
2014-07-24T23:16:37.656Z,100918
2014-07-24T23:16:55.844Z,100920
2014-07-24T23:17:14.031Z,100932
2014-07-24T23:17:32.219Z,100915
2014-07-24T23:17:50.408Z,100918
2014-07-24T23:18:08.596Z,100929
2014-07-24T23:18:26.799Z,100915
2014-07-24T23:18:44.988Z,100915
2014-07-24T23:19:03.175Z,100923
2014-07-24T23:19:21.363Z,100920
2014-07-24T23:19:39.552Z,100920
2014-07-24T23:19:57.740Z,100918
2014-07-24T23:20:15.927Z,100915
2014-07-24T23:20:34.115Z,100926
2014-07-24T23:20:52.304Z,100920
2014-07-24T23:21:10.492Z,100923
2014-07-24T23:21:28.695Z,100923
2014-07-24T23:21:46.884Z,100940
2014-07-24T23:22:05.072Z,100935
2014-07-24T23:22:23.259Z,100926
2014-07-24T23:22:41.449Z,100935
2014-07-24T23:22:59.636Z,100918
2014-07-24T23:23:17.839Z,100923
2014-07-24T23:23:36.027Z,100932
2014-07-24T23:23:54.216Z,100929
2014-07-24T23:24:12.404Z,100929
2014-07-24T23:24:30.591Z,100929
2014-07-24T23:24:48.781Z,100929
2014-07-24T23:25:06.968Z,100929
2014-07-24T23:25:25.171Z,100929
2014-07-24T23:25:43.360Z,100932
2014-07-24T23:26:01.547Z,100932
2014-07-24T23:26:19.735Z,100932
2014-07-24T23:26:37.922Z,100929
2014-07-24T23:26:56.113Z,100935
2014-07-24T23:27:14.300Z,100929
2014-07-24T23:27:32.504Z,100929
2014-07-24T23:27:50.693Z,100932
2014-07-24T23:28:08.881Z,100929
2014-07-24T23:28:27.068Z,100926
2014-07-24T23:28:45.258Z,100938
2014-07-24T23:29:03.445Z,100932
2014-07-24T23:29:21.633Z,100929
2014-07-24T23:29:39.836Z,100929
2014-07-24T23:29:58.025Z,100935
2014-07-24T23:30:16.213Z,100926
2014-07-24T23:30:34.400Z,100929
2014-07-24T23:30:52.590Z,100935
2014-07-24T23:31:10.793Z,100926
2014-07-24T23:31:28.980Z,100926
2014-07-24T23:31:47.169Z,100940
2014-07-24T23:32:05.356Z,100932
2014-07-24T23:32:23.544Z,100938
2014-07-24T23:32:41.731Z,100932
2014-07-24T23:32:59.922Z,100929
2014-07-24T23:33:18.125Z,100926
2014-07-24T23:33:36.312Z,100926
2014-07-24T23:33:54.501Z,100926
2014-07-24T23:34:12.688Z,100926
2014-07-24T23:34:30.876Z,100926
2014-07-24T23:34:49.065Z,100929
2014-07-24T23:35:07.253Z,100917
2014-07-24T23:35:25.440Z,100920
2014-07-24T23:35:43.628Z,100917
2014-07-24T23:36:01.817Z,100923
2014-07-24T23:36:20.021Z,100920
2014-07-24T23:36:38.208Z,100920
2014-07-24T23:36:56.398Z,100923
2014-07-24T23:37:14.585Z,100929
2014-07-24T23:37:32.773Z,100917
2014-07-24T23:37:50.978Z,100926
2014-07-24T23:38:09.165Z,100920
2014-07-24T23:38:27.353Z,100923
2014-07-24T23:38:45.540Z,100929
2014-07-24T23:39:03.730Z,100935
2014-07-24T23:39:21.917Z,100923
2014-07-24T23:39:40.105Z,100926
2014-07-24T23:39:58.294Z,100926
2014-07-24T23:40:16.497Z,100926
2014-07-24T23:40:34.685Z,100932
2014-07-24T23:40:52.874Z,100917
2014-07-24T23:41:11.062Z,100923
2014-07-24T23:41:29.249Z,100917
2014-07-24T23:41:47.437Z,100917
2014-07-24T23:42:05.642Z,100923
2014-07-24T23:42:23.829Z,100923
2014-07-24T23:42:42.017Z,100920
2014-07-24T23:43:00.206Z,100923
2014-07-24T23:43:18.394Z,100917
2014-07-24T23:43:36.597Z,100926
2014-07-24T23:43:54.787Z,100920
2014-07-24T23:44:12.974Z,100920
2014-07-24T23:44:31.162Z,100915
2014-07-24T23:44:49.349Z,100923
2014-07-24T23:45:07.539Z,100915
2014-07-24T23:45:25.742Z,100909
2014-07-24T23:45:43.929Z,100909
2014-07-24T23:46:02.119Z,100909
2014-07-24T23:46:20.306Z,100912
2014-07-24T23:46:38.494Z,100915
2014-07-24T23:46:56.683Z,100906
2014-07-24T23:47:14.871Z,100906
2014-07-24T23:47:33.074Z,100900
2014-07-24T23:47:51.261Z,100915
2014-07-24T23:48:09.450Z,100920
2014-07-24T23:48:27.637Z,100923
2014-07-24T23:48:45.825Z,100912
2014-07-24T23:49:04.030Z,100923
2014-07-24T23:49:22.217Z,100917
2014-07-24T23:49:40.405Z,100912
2014-07-24T23:49:58.594Z,100917
2014-07-24T23:50:16.782Z,100912
2014-07-24T23:50:34.969Z,100917
2014-07-24T23:50:53.157Z,100932
2014-07-24T23:51:11.363Z,100914
2014-07-24T23:51:29.551Z,100920
2014-07-24T23:51:47.738Z,100914
2014-07-24T23:52:05.927Z,100906
2014-07-24T23:52:24.114Z,100909
2014-07-24T23:52:42.302Z,100912
2014-07-24T23:53:00.507Z,100917
2014-07-24T23:53:18.694Z,100917
2014-07-24T23:53:36.882Z,100912
2014-07-24T23:53:55.069Z,100914
2014-07-24T23:54:13.259Z,100917
2014-07-24T23:54:31.446Z,100909
2014-07-24T23:54:49.634Z,100906
2014-07-24T23:55:07.839Z,100909
2014-07-24T23:55:26.026Z,100906
2014-07-24T23:55:44.214Z,100909
2014-07-24T23:56:02.401Z,100914
2014-07-24T23:56:20.591Z,100909
2014-07-24T23:56:38.778Z,100903
2014-07-24T23:56:56.966Z,100903
2014-07-24T23:57:15.171Z,100914
2014-07-24T23:57:33.358Z,100906
2014-07-24T23:57:51.546Z,100912
2014-07-24T23:58:09.733Z,100906
2014-07-24T23:58:27.924Z,100906
2014-07-24T23:58:46.111Z,100909
2014-07-24T23:59:04.299Z,100894
2014-07-24T23:59:22.487Z,100903
2014-07-24T23:59:40.675Z,100900
2014-07-24T23:59:58.862Z,100900
